Mount Pleasant, MI

7:28 AM EDT on July 25, 2017 (GMT -0400)
Mount Pleasant Municipal

Weather History for KMOP - March, 2012

Change the Weather History Date:

Saturday, March 24, 2012

  Actual Average (KAMN) Record (KAMN)
Temperature  
Mean Temperature 50 °F -  
Max Temperature 54 °F 47 °F 69 °F (2003)
Min Temperature 47 °F 24 °F 5 °F (1983)
Degree Days  
Heating Degree Days 14    
Moisture  
Dew Point 47 °F    
Average Humidity 88    
Maximum Humidity 98    
Minimum Humidity 76    
Precipitation  
Precipitation 0.04 in - - ()
Sea Level Pressure  
Sea Level Pressure 29.86 in    
Wind  
Wind Speed 7 mph (NE)    
Max Wind Speed 9 mph    
Max Gust Speed -    
Visibility 9 miles    
Events Rain    
Averages and records for this station are not official NWS values.
T = Trace of Precipitation, MM = Missing Value Source: NWS Daily Summary

Daily Weather History Graph

Daily Weather History Graph

Search for Another Location

Airport or City:

Trip Planner

Search our weather history database for the weather conditions in past years. The results will help you decide how hot, cold, wet, or windy it might be!

Date:

Astronomy

Mar. 24, 2012 Rise Set
Actual Time 7:34 AM EDT 7:56 PM EDT
Civil Twilight 7:05 AM EDT 8:25 PM EDT
Nautical Twilight 6:31 AM EDT 8:59 PM EDT
Astronomical Twilight 5:56 AM EDT 9:34 PM EDT
Moon 8:07 AM EDT (3/24) 10:21 PM EDT (3/24)
Length of Visible Light 13h 20m
Length of Day
12h 22m
Waxing Crescent, 4% of the Moon is Illuminated
Mar 24
Waxing Crescent
Mar 30
First Quarter
Apr 6
Full
Apr 13
Last Quarter
Apr 21
New

Hourly Weather History & Observations

Time (EDT) Temp. Dew Point Humidity Pressure Visibility Wind Dir Wind Speed Gust Speed Precip Events Conditions
12:15 AM 52.0 °F 51.3 °F 97% 29.90 in 5.0 mi ENE 9.2 mph - 0.03 in Rain Light Rain
12:35 AM 52.0 °F 51.4 °F 98% 29.89 in 5.0 mi East 8.1 mph - 0.03 in Rain Rain
12:55 AM 52.0 °F 51.4 °F 98% 29.88 in 7.0 mi ENE 9.2 mph - 0.03 in   Overcast
1:15 AM 51.8 °F 51.1 °F 97% 29.89 in 7.0 mi East 6.9 mph - N/A   Overcast
1:35 AM 51.8 °F 50.9 °F 97% 29.88 in 7.0 mi East 8.1 mph - N/A   Overcast
1:55 AM 51.6 °F 50.4 °F 95% 29.88 in 10.0 mi ENE 6.9 mph - N/A   Overcast
2:15 AM 51.4 °F 50.0 °F 95% 29.86 in 10.0 mi ENE 8.1 mph - N/A   Overcast
2:35 AM 51.3 °F 49.6 °F 94% 29.86 in 10.0 mi ENE 8.1 mph - N/A   Mostly Cloudy
2:55 AM 51.3 °F 49.3 °F 93% 29.86 in 10.0 mi ENE 6.9 mph - N/A   Overcast
3:15 AM 50.9 °F 48.6 °F 92% 29.85 in 10.0 mi ENE 3.5 mph - N/A   Overcast
3:35 AM 51.1 °F 48.6 °F 91% 29.85 in 10.0 mi ENE 5.8 mph - N/A   Overcast
3:54 AM 51.1 °F 48.4 °F 90% 29.84 in 10.0 mi NE 4.6 mph - N/A   Overcast
4:15 AM 51.1 °F 48.0 °F 89% 29.84 in 10.0 mi ENE 3.5 mph - N/A   Overcast
4:35 AM 51.1 °F 48.2 °F 90% 29.84 in 10.0 mi Calm Calm - N/A   Overcast
4:55 AM 50.9 °F 47.8 °F 89% 29.84 in 10.0 mi Calm Calm - N/A   Overcast
5:15 AM 50.5 °F 47.5 °F 89% 29.85 in 10.0 mi NE 4.6 mph - N/A   Overcast
5:35 AM 50.5 °F 47.3 °F 89% 29.85 in 10.0 mi NNE 5.8 mph - N/A   Overcast
5:54 AM 50.4 °F 46.8 °F 87% 29.85 in 10.0 mi NNE 5.8 mph - N/A   Overcast
6:15 AM 50.2 °F 46.6 °F 87% 29.84 in 10.0 mi NNE 6.9 mph - N/A   Overcast
6:35 AM 50.0 °F 46.0 °F 86% 29.85 in 10.0 mi NNE 6.9 mph - N/A   Overcast
6:54 AM 50.0 °F 45.7 °F 85% 29.86 in 10.0 mi NNE 5.8 mph - N/A   Overcast
7:15 AM 50.0 °F 45.1 °F 83% 29.86 in 10.0 mi NNE 5.8 mph - N/A   Overcast
7:35 AM 50.0 °F 44.6 °F 82% 29.86 in 10.0 mi NNE 5.8 mph - N/A   Overcast
7:55 AM 50.0 °F 44.2 °F 81% 29.86 in 10.0 mi NNE 4.6 mph - N/A   Overcast
8:15 AM 50.0 °F 43.9 °F 79% 29.86 in 10.0 mi NNE 5.8 mph - N/A   Overcast
8:35 AM 50.2 °F 43.7 °F 78% 29.86 in 10.0 mi NNE 5.8 mph - N/A   Overcast
8:55 AM 50.4 °F 43.0 °F 76% 29.86 in 10.0 mi NNE 8.1 mph - N/A   Overcast
9:15 AM 50.5 °F 43.5 °F 77% 29.86 in 10.0 mi ENE 8.1 mph - N/A   Overcast
9:35 AM 50.4 °F 45.0 °F 82% 29.87 in 10.0 mi NE 4.6 mph - N/A   Overcast
9:55 AM 48.7 °F 46.9 °F 93% 29.87 in 4.0 mi ENE 4.6 mph - N/A   Light Drizzle
10:15 AM 47.8 °F 46.9 °F 97% 29.88 in 2.5 mi NE 5.8 mph - 0.01 in   Drizzle
10:35 AM 47.7 °F 46.9 °F 97% 29.87 in 2.5 mi NE 6.9 mph - 0.01 in   Drizzle
10:55 AM 47.7 °F 47.1 °F 98% 29.87 in 4.0 mi NNE 5.8 mph - 0.01 in   Light Drizzle
11:15 AM 48.2 °F 47.3 °F 97% 29.87 in 5.0 mi NE 9.2 mph - N/A   Overcast
11:35 AM 48.2 °F 47.3 °F 97% 29.86 in 5.0 mi NNE 4.6 mph - N/A   Overcast
11:55 AM 48.9 °F 47.8 °F 96% 29.87 in 7.0 mi NNE 6.9 mph - N/A   Overcast
12:15 PM 49.1 °F 47.7 °F 95% 29.87 in 10.0 mi NNE 6.9 mph - N/A   Overcast
12:35 PM 49.5 °F 47.3 °F 92% 29.87 in 10.0 mi NE 5.8 mph - N/A   Overcast
12:55 PM 49.5 °F 46.8 °F 90% 29.87 in 10.0 mi ENE 5.8 mph - N/A   Overcast
1:15 PM 50.4 °F 47.1 °F 89% 29.87 in 10.0 mi NE 8.1 mph - N/A   Overcast
1:35 PM 50.9 °F 47.1 °F 87% 29.86 in 10.0 mi ENE 6.9 mph - N/A   Overcast
1:55 PM 51.1 °F 46.9 °F 86% 29.86 in 10.0 mi North 5.8 mph - N/A   Overcast
2:14 PM 50.9 °F 47.1 °F 87% 29.86 in 10.0 mi North 8.1 mph - N/A   Overcast
2:35 PM 51.6 °F 47.5 °F 86% 29.86 in 10.0 mi NE 8.1 mph - N/A   Overcast
2:55 PM 51.1 °F 46.6 °F 85% 29.86 in 10.0 mi ENE 6.9 mph - N/A   Overcast
3:14 PM 51.8 °F 47.1 °F 84% 29.86 in 10.0 mi NE 6.9 mph - N/A   Overcast
3:35 PM 52.2 °F 46.8 °F 82% 29.85 in 10.0 mi NNE 6.9 mph - N/A   Overcast
3:55 PM 52.5 °F 46.6 °F 80% 29.85 in 10.0 mi NNE 5.8 mph - N/A   Overcast
4:14 PM 53.6 °F 47.3 °F 79% 29.86 in 10.0 mi North 4.6 mph - N/A   Overcast
4:35 PM 54.0 °F 46.8 °F 77% 29.86 in 10.0 mi ENE 3.5 mph - N/A   Overcast
4:55 PM 54.1 °F 46.8 °F 76% 29.86 in 10.0 mi Calm Calm - N/A   Overcast
5:14 PM 53.6 °F 47.3 °F 79% 29.86 in 10.0 mi North 5.8 mph - N/A   Overcast
5:35 PM 53.4 °F 47.7 °F 81% 29.87 in 10.0 mi NNE 5.8 mph - N/A   Overcast
5:55 PM 53.1 °F 47.3 °F 81% 29.86 in 10.0 mi North 4.6 mph - N/A   Overcast
6:14 PM 53.2 °F 47.3 °F 80% 29.87 in 10.0 mi North 4.6 mph - N/A   Overcast
6:35 PM 52.9 °F 47.5 °F 82% 29.87 in 10.0 mi NNE 4.6 mph - N/A   Overcast
6:55 PM 52.7 °F 47.3 °F 82% 29.87 in 10.0 mi North 4.6 mph - N/A   Overcast
7:15 PM 52.3 °F 47.3 °F 83% 29.88 in 10.0 mi NE 3.5 mph - N/A   Overcast
7:35 PM 52.0 °F 47.1 °F 83% 29.88 in 10.0 mi ENE 5.8 mph - N/A   Overcast
7:55 PM 51.8 °F 46.9 °F 83% 29.88 in 10.0 mi Calm Calm - N/A   Overcast
8:14 PM 51.8 °F 47.3 °F 85% 29.89 in 10.0 mi Calm Calm - N/A   Overcast
8:35 PM 51.6 °F 46.9 °F 84% 29.88 in 10.0 mi ENE 3.5 mph - N/A   Overcast
8:55 PM 51.1 °F 47.3 °F 87% 29.88 in 10.0 mi NE 3.5 mph - N/A   Overcast
9:15 PM 51.1 °F 47.3 °F 87% 29.89 in 10.0 mi Calm Calm - N/A   Overcast
9:35 PM 50.9 °F 47.1 °F 87% 29.89 in 10.0 mi Calm Calm - N/A   Overcast
9:55 PM 50.5 °F 47.3 °F 89% 29.89 in 10.0 mi Calm Calm - N/A   Overcast
10:15 PM 50.5 °F 47.5 °F 89% 29.89 in 10.0 mi ESE 3.5 mph - N/A   Overcast
10:35 PM 50.4 °F 47.3 °F 89% 29.90 in 10.0 mi ESE 4.6 mph - N/A   Overcast
10:55 PM 50.2 °F 47.1 °F 89% 29.90 in 10.0 mi Calm Calm - N/A   Overcast
11:15 PM 50.0 °F 47.3 °F 90% 29.91 in 10.0 mi Calm Calm - N/A   Overcast
11:35 PM 50.0 °F 47.1 °F 90% 29.91 in 10.0 mi Calm Calm - N/A   Overcast
11:55 PM 50.0 °F 46.9 °F 89% 29.89 in 10.0 mi Calm Calm - N/A   Overcast